sensor_id;sensor_type;location;lat;lon;timestamp;pressure;altitude;pressure_sealevel;temperature;humidity
64019;BME280;66942;52.138;5.216;2023-02-28T00:01:10;103247.0;;;4.24;64.13
64019;BME280;66942;52.138;5.216;2023-02-28T00:04:24;103246.0;;;4.26;64.3
64019;BME280;66942;52.138;5.216;2023-02-28T00:06:01;103244.0;;;4.54;63.73
64019;BME280;66942;52.138;5.216;2023-02-28T00:07:37;103241.00000000001;;;4.55;63.8
64019;BME280;66942;52.138;5.216;2023-02-28T00:09:14;103242.0;;;4.37;64.3
64019;BME280;66942;52.138;5.216;2023-02-28T00:12:27;103242.0;;;4.37;64.61
64019;BME280;66942;52.138;5.216;2023-02-28T00:14:03;103246.0;;;4.24;64.98
64019;BME280;66942;52.138;5.216;2023-02-28T00:15:39;103248.0;;;4.62;64.11
64019;BME280;66942;52.138;5.216;2023-02-28T00:18:51;103250.0;;;4.87;63.24
64019;BME280;66942;52.138;5.216;2023-02-28T00:20:27;103253.0;;;5.07;62.58
64019;BME280;66942;52.138;5.216;2023-02-28T00:22:03;103258.0;;;5.16;62.32
64019;BME280;66942;52.138;5.216;2023-02-28T00:25:18;103258.0;;;4.87;63.15
64019;BME280;66942;52.138;5.216;2023-02-28T00:26:56;103257.0;;;4.75;63.75
64019;BME280;66942;52.138;5.216;2023-02-28T00:28:32;103254.0;;;4.78;63.74
64019;BME280;66942;52.138;5.216;2023-02-28T00:30:11;103247.0;;;4.62;64.33
64019;BME280;66942;52.138;5.216;2023-02-28T00:33:27;103247.0;;;4.87;63.8
64019;BME280;66942;52.138;5.216;2023-02-28T00:35:05;103248.0;;;4.78;63.75
64019;BME280;66942;52.138;5.216;2023-02-28T00:36:43;103249.0;;;4.53;64.5
64019;BME280;66942;52.138;5.216;2023-02-28T00:39:56;103250.0;;;4.74;64.16
64019;BME280;66942;52.138;5.216;2023-02-28T00:41:32;103251.0;;;4.92;63.62
64019;BME280;66942;52.138;5.216;2023-02-28T00:43:08;103252.0;;;4.86;63.78
64019;BME280;66942;52.138;5.216;2023-02-28T00:44:44;103253.0;;;4.74;64.45
64019;BME280;66942;52.138;5.216;2023-02-28T00:47:57;103255.0;;;4.87;64.06
64019;BME280;66942;52.138;5.216;2023-02-28T00:49:33;103246.0;;;4.88;64.06
64019;BME280;66942;52.138;5.216;2023-02-28T00:51:09;103249.0;;;5.07;63.56
64019;BME280;66942;52.138;5.216;2023-02-28T00:54:23;103245.0;;;4.93;63.61
64019;BME280;66942;52.138;5.216;2023-02-28T00:55:59;103246.0;;;4.91;64.08
64019;BME280;66942;52.138;5.216;2023-02-28T00:57:36;103245.0;;;5.0;64.02
64019;BME280;66942;52.138;5.216;2023-02-28T01:00:49;103246.0;;;5.22;62.92
64019;BME280;66942;52.138;5.216;2023-02-28T01:02:26;103241.00000000001;;;5.36;62.87
64019;BME280;66942;52.138;5.216;2023-02-28T01:04:02;103239.00000000001;;;5.43;62.65
64019;BME280;66942;52.138;5.216;2023-02-28T01:05:38;103234.99999999999;;;5.33;62.98
64019;BME280;66942;52.138;5.216;2023-02-28T01:08:50;103234.99999999999;;;5.27;63.11
64019;BME280;66942;52.138;5.216;2023-02-28T01:10:28;103245.0;;;5.08;63.95
64019;BME280;66942;52.138;5.216;2023-02-28T01:12:04;103246.0;;;5.11;63.95
64019;BME280;66942;52.138;5.216;2023-02-28T01:15:17;103245.0;;;5.36;63.2
64019;BME280;66942;52.138;5.216;2023-02-28T01:16:53;103252.0;;;5.67;62.21
64019;BME280;66942;52.138;5.216;2023-02-28T01:18:30;103244.0;;;5.63;62.25
64019;BME280;66942;52.138;5.216;2023-02-28T01:21:42;103248.0;;;5.53;62.53
64019;BME280;66942;52.138;5.216;2023-02-28T01:23:19;103247.0;;;5.8;61.95
64019;BME280;66942;52.138;5.216;2023-02-28T01:24:56;103241.00000000001;;;5.9;61.51
64019;BME280;66942;52.138;5.216;2023-02-28T01:26:32;103246.0;;;5.51;62.82
64019;BME280;66942;52.138;5.216;2023-02-28T01:29:44;103242.0;;;5.19;63.89
64019;BME280;66942;52.138;5.216;2023-02-28T01:31:21;103241.00000000001;;;5.15;63.91
64019;BME280;66942;52.138;5.216;2023-02-28T01:32:59;103238.00000000001;;;5.23;63.68
64019;BME280;66942;52.138;5.216;2023-02-28T01:36:14;103233.99999999999;;;5.24;63.98
64019;BME280;66942;52.138;5.216;2023-02-28T01:37:51;103233.99999999999;;;5.38;63.45
64019;BME280;66942;52.138;5.216;2023-02-28T01:39:27;103233.99999999999;;;5.7;62.5
64019;BME280;66942;52.138;5.216;2023-02-28T01:42:40;103236.99999999999;;;5.52;63.04
64019;BME280;66942;52.138;5.216;2023-02-28T01:45:23;103238.00000000001;;;5.43;63.36
64019;BME280;66942;52.138;5.216;2023-02-28T01:47:02;103233.0;;;5.57;62.95
64019;BME280;66942;52.138;5.216;2023-02-28T01:48:40;103233.0;;;5.85;62.1
64019;BME280;66942;52.138;5.216;2023-02-28T01:50:20;103230.0;;;5.78;62.18
64019;BME280;66942;52.138;5.216;2023-02-28T01:51:58;103232.0;;;5.51;63.07
64019;BME280;66942;52.138;5.216;2023-02-28T01:55:19;103230.0;;;5.55;63.1
64019;BME280;66942;52.138;5.216;2023-02-28T01:57:00;103232.0;;;5.74;62.76
64019;BME280;66942;52.138;5.216;2023-02-28T01:58:41;103229.0;;;5.73;62.57
64019;BME280;66942;52.138;5.216;2023-02-28T02:00:20;103232.0;;;5.52;63.11
64019;BME280;66942;52.138;5.216;2023-02-28T02:03:36;103225.0;;;5.39;63.87
64019;BME280;66942;52.138;5.216;2023-02-28T02:05:16;103223.0;;;5.46;63.73
64019;BME280;66942;52.138;5.216;2023-02-28T02:06:53;103214.00000000001;;;5.71;63.08
64019;BME280;66942;52.138;5.216;2023-02-28T02:08:31;103211.99999999999;;;5.95;62.27
64019;BME280;66942;52.138;5.216;2023-02-28T02:11:51;103208.0;;;5.79;62.85
64019;BME280;66942;52.138;5.216;2023-02-28T02:13:42;103209.99999999999;;;5.74;63.09
64019;BME280;66942;52.138;5.216;2023-02-28T02:15:32;103199.0;;;5.62;63.3
64019;BME280;66942;52.138;5.216;2023-02-28T02:17:19;103194.0;;;5.81;62.93
64019;BME280;66942;52.138;5.216;2023-02-28T02:19:14;103193.0;;;5.9;62.7
64019;BME280;66942;52.138;5.216;2023-02-28T02:21:16;103203.0;;;6.11;62.04
64019;BME280;66942;52.138;5.216;2023-02-28T02:24:54;103199.0;;;6.12;61.89
64019;BME280;66942;52.138;5.216;2023-02-28T02:27:04;103203.0;;;6.18;61.6
64019;BME280;66942;52.138;5.216;2023-02-28T02:29:58;103208.99999999999;;;5.73;63.14
64019;BME280;66942;52.138;5.216;2023-02-28T02:32:18;103207.0;;;5.79;63.05
64019;BME280;66942;52.138;5.216;2023-02-28T02:35:30;103207.0;;;5.62;63.58
64019;BME280;66942;52.138;5.216;2023-02-28T02:37:15;103205.0;;;5.46;64.09
64019;BME280;66942;52.138;5.216;2023-02-28T02:39:02;103211.99999999999;;;5.51;64.02
64019;BME280;66942;52.138;5.216;2023-02-28T02:40:47;103207.0;;;5.57;64.08
64019;BME280;66942;52.138;5.216;2023-02-28T02:42:36;103204.0;;;5.4;64.41
64019;BME280;66942;52.138;5.216;2023-02-28T02:44:20;103214.00000000001;;;5.61;64.03
64019;BME280;66942;52.138;5.216;2023-02-28T02:47:41;103209.99999999999;;;5.43;64.17
64019;BME280;66942;52.138;5.216;2023-02-28T02:49:21;103204.0;;;5.51;64.28
64019;BME280;66942;52.138;5.216;2023-02-28T02:51:01;103204.0;;;5.54;64.36
64019;BME280;66942;52.138;5.216;2023-02-28T02:52:44;103206.0;;;5.61;64.33
64019;BME280;66942;52.138;5.216;2023-02-28T02:54:34;103206.0;;;5.58;64.33
64019;BME280;66942;52.138;5.216;2023-02-28T02:57:53;103208.0;;;5.61;64.02
64019;BME280;66942;52.138;5.216;2023-02-28T02:59:35;103208.99999999999;;;5.41;64.75
64019;BME280;66942;52.138;5.216;2023-02-28T03:01:16;103206.0;;;5.44;64.83
64019;BME280;66942;52.138;5.216;2023-02-28T03:02:55;103203.0;;;5.29;65.69
64019;BME280;66942;52.138;5.216;2023-02-28T03:06:18;103204.0;;;5.57;64.78
64019;BME280;66942;52.138;5.216;2023-02-28T03:07:54;103200.0;;;5.85;63.76
64019;BME280;66942;52.138;5.216;2023-02-28T03:09:33;103200.0;;;5.8;64.2
64019;BME280;66942;52.138;5.216;2023-02-28T03:11:13;103206.0;;;6.2;62.91
64019;BME280;66942;52.138;5.216;2023-02-28T03:14:51;103208.0;;;6.26;62.53
64019;BME280;66942;52.138;5.216;2023-02-28T03:16:35;103213.00000000001;;;5.97;63.18
64019;BME280;66942;52.138;5.216;2023-02-28T03:18:22;103207.0;;;5.75;64.08
64019;BME280;66942;52.138;5.216;2023-02-28T03:20:07;103214.00000000001;;;5.54;64.88
64019;BME280;66942;52.138;5.216;2023-02-28T03:21:58;103208.99999999999;;;5.56;65.0
64019;BME280;66942;52.138;5.216;2023-02-28T03:23:45;103208.99999999999;;;5.62;64.74
64019;BME280;66942;52.138;5.216;2023-02-28T03:27:16;103208.99999999999;;;5.74;64.53
64019;BME280;66942;52.138;5.216;2023-02-28T03:29:02;103204.0;;;5.45;65.88
64019;BME280;66942;52.138;5.216;2023-02-28T03:30:46;103209.99999999999;;;5.55;65.58
64019;BME280;66942;52.138;5.216;2023-02-28T03:32:28;103208.0;;;5.91;64.61
64019;BME280;66942;52.138;5.216;2023-02-28T03:34:12;103208.99999999999;;;6.24;63.38
64019;BME280;66942;52.138;5.216;2023-02-28T03:37:38;103209.99999999999;;;6.19;63.15
64019;BME280;66942;52.138;5.216;2023-02-28T03:39:20;103207.0;;;6.0;63.87
64019;BME280;66942;52.138;5.216;2023-02-28T03:41:04;103206.0;;;6.12;63.24
64019;BME280;66942;52.138;5.216;2023-02-28T03:42:43;103208.0;;;6.2;63.1
64019;BME280;66942;52.138;5.216;2023-02-28T03:46:09;103203.0;;;6.47;62.46
64019;BME280;66942;52.138;5.216;2023-02-28T03:47:49;103209.99999999999;;;6.29;62.92
64019;BME280;66942;52.138;5.216;2023-02-28T03:49:31;103213.00000000001;;;6.16;63.53
64019;BME280;66942;52.138;5.216;2023-02-28T03:51:14;103211.99999999999;;;6.16;63.47
64019;BME280;66942;52.138;5.216;2023-02-28T03:54:41;103211.99999999999;;;5.93;64.16
64019;BME280;66942;52.138;5.216;2023-02-28T03:56:23;103214.00000000001;;;6.1;63.93
64019;BME280;66942;52.138;5.216;2023-02-28T03:58:11;103217.0;;;6.22;63.43
64019;BME280;66942;52.138;5.216;2023-02-28T03:59:55;103217.0;;;6.26;63.4
64019;BME280;66942;52.138;5.216;2023-02-28T04:01:38;103217.0;;;6.01;64.22
64019;BME280;66942;52.138;5.216;2023-02-28T04:04:52;103222.0;;;6.43;62.92
64019;BME280;66942;52.138;5.216;2023-02-28T04:06:31;103222.0;;;6.38;63.16
64019;BME280;66942;52.138;5.216;2023-02-28T04:08:08;103217.0;;;6.11;63.82
64019;BME280;66942;52.138;5.216;2023-02-28T04:09:44;103222.0;;;6.46;63.06
64019;BME280;66942;52.138;5.216;2023-02-28T04:13:02;103217.0;;;6.68;62.2
64019;BME280;66942;52.138;5.216;2023-02-28T04:14:38;103218.0;;;6.61;62.51
64019;BME280;66942;52.138;5.216;2023-02-28T04:16:15;103221.0;;;6.25;63.7
64019;BME280;66942;52.138;5.216;2023-02-28T04:19:28;103227.0;;;6.46;63.13
64019;BME280;66942;52.138;5.216;2023-02-28T04:21:04;103225.0;;;6.39;63.12
64019;BME280;66942;52.138;5.216;2023-02-28T04:22:41;103220.0;;;6.28;63.83
64019;BME280;66942;52.138;5.216;2023-02-28T04:25:57;103223.0;;;6.5;63.27
64019;BME280;66942;52.138;5.216;2023-02-28T04:27:33;103223.0;;;6.25;64.13
64019;BME280;66942;52.138;5.216;2023-02-28T04:29:11;103222.0;;;6.15;64.44
64019;BME280;66942;52.138;5.216;2023-02-28T04:30:54;103225.0;;;6.23;64.63
64019;BME280;66942;52.138;5.216;2023-02-28T04:34:07;103230.0;;;6.33;64.63
64019;BME280;66942;52.138;5.216;2023-02-28T04:35:43;103231.0;;;6.62;63.63
64019;BME280;66942;52.138;5.216;2023-02-28T04:37:20;103226.0;;;6.78;62.79
64019;BME280;66942;52.138;5.216;2023-02-28T04:40:33;103224.0;;;6.17;64.58
64019;BME280;66942;52.138;5.216;2023-02-28T04:42:09;103232.0;;;6.41;64.17
64019;BME280;66942;52.138;5.216;2023-02-28T04:43:46;103233.99999999999;;;6.25;64.67
64019;BME280;66942;52.138;5.216;2023-02-28T04:45:22;103231.0;;;6.04;65.58
64019;BME280;66942;52.138;5.216;2023-02-28T04:48:36;103227.0;;;6.1;65.22
64019;BME280;66942;52.138;5.216;2023-02-28T04:50:14;103229.0;;;6.26;64.88
64019;BME280;66942;52.138;5.216;2023-02-28T04:51:50;103233.99999999999;;;6.52;64.22
64019;BME280;66942;52.138;5.216;2023-02-28T04:55:05;103229.0;;;6.53;64.23
64019;BME280;66942;52.138;5.216;2023-02-28T04:56:41;103230.0;;;6.62;63.67
64019;BME280;66942;52.138;5.216;2023-02-28T04:58:18;103231.0;;;6.48;63.71
64019;BME280;66942;52.138;5.216;2023-02-28T04:59:54;103231.0;;;6.65;63.1
64019;BME280;66942;52.138;5.216;2023-02-28T05:03:09;103231.0;;;6.61;62.33
64019;BME280;66942;52.138;5.216;2023-02-28T05:04:45;103227.0;;;6.69;60.53
64019;BME280;66942;52.138;5.216;2023-02-28T05:06:22;103225.0;;;6.56;60.03
64019;BME280;66942;52.138;5.216;2023-02-28T05:09:35;103225.0;;;6.62;59.62
64019;BME280;66942;52.138;5.216;2023-02-28T05:11:16;103226.0;;;6.74;58.4
64019;BME280;66942;52.138;5.216;2023-02-28T05:12:52;103224.0;;;6.6;56.27
64019;BME280;66942;52.138;5.216;2023-02-28T05:16:05;103223.0;;;6.54;56.39
64019;BME280;66942;52.138;5.216;2023-02-28T05:17:42;103227.0;;;6.69;56.29
64019;BME280;66942;52.138;5.216;2023-02-28T05:19:19;103223.0;;;6.62;55.64
64019;BME280;66942;52.138;5.216;2023-02-28T05:20:55;103221.0;;;6.57;54.41
64019;BME280;66942;52.138;5.216;2023-02-28T05:24:09;103221.0;;;6.49;55.08
64019;BME280;66942;52.138;5.216;2023-02-28T05:25:48;103221.0;;;6.34;56.45
64019;BME280;66942;52.138;5.216;2023-02-28T05:27:24;103224.0;;;6.53;54.95
64019;BME280;66942;52.138;5.216;2023-02-28T05:30:36;103229.0;;;6.83;54.23
64019;BME280;66942;52.138;5.216;2023-02-28T05:32:12;103228.0;;;6.54;54.64
64019;BME280;66942;52.138;5.216;2023-02-28T05:33:49;103231.0;;;6.5;54.42
64019;BME280;66942;52.138;5.216;2023-02-28T05:35:26;103239.00000000001;;;6.75;54.72
64019;BME280;66942;52.138;5.216;2023-02-28T05:38:39;103233.99999999999;;;6.17;55.15
64019;BME280;66942;52.138;5.216;2023-02-28T05:40:15;103236.99999999999;;;6.75;54.24
64019;BME280;66942;52.138;5.216;2023-02-28T05:41:52;103233.0;;;6.63;54.4
64019;BME280;66942;52.138;5.216;2023-02-28T05:45:05;103231.0;;;6.69;53.97
64019;BME280;66942;52.138;5.216;2023-02-28T05:46:41;103233.0;;;6.38;55.16
64019;BME280;66942;52.138;5.216;2023-02-28T05:48:17;103236.99999999999;;;6.35;55.84
64019;BME280;66942;52.138;5.216;2023-02-28T05:51:30;103239.00000000001;;;6.34;56.08
64019;BME280;66942;52.138;5.216;2023-02-28T05:53:06;103241.00000000001;;;6.28;56.15
64019;BME280;66942;52.138;5.216;2023-02-28T05:54:42;103240.00000000001;;;6.13;56.96
64019;BME280;66942;52.138;5.216;2023-02-28T05:57:54;103231.0;;;6.17;57.31
64019;BME280;66942;52.138;5.216;2023-02-28T05:59:30;103236.99999999999;;;6.13;57.72
64019;BME280;66942;52.138;5.216;2023-02-28T06:01:32;103243.0;;;6.13;58.35
64019;BME280;66942;52.138;5.216;2023-02-28T06:03:09;103242.0;;;6.16;58.64
64019;BME280;66942;52.138;5.216;2023-02-28T06:04:45;103240.00000000001;;;6.39;58.44
64019;BME280;66942;52.138;5.216;2023-02-28T06:07:58;103242.0;;;6.31;58.88
64019;BME280;66942;52.138;5.216;2023-02-28T06:09:34;103241.00000000001;;;6.15;59.68
64019;BME280;66942;52.138;5.216;2023-02-28T06:11:12;103242.0;;;5.71;61.38
64019;BME280;66942;52.138;5.216;2023-02-28T06:14:25;103247.0;;;5.86;61.5
64019;BME280;66942;52.138;5.216;2023-02-28T06:16:01;103246.0;;;5.95;61.3
64019;BME280;66942;52.138;5.216;2023-02-28T06:17:37;103245.0;;;5.77;62.42
64019;BME280;66942;52.138;5.216;2023-02-28T06:20:52;103248.0;;;5.94;61.64
64019;BME280;66942;52.138;5.216;2023-02-28T06:22:28;103255.0;;;5.76;62.26
64019;BME280;66942;52.138;5.216;2023-02-28T06:24:05;103246.0;;;5.93;61.76
64019;BME280;66942;52.138;5.216;2023-02-28T06:25:44;103247.0;;;6.06;61.58
64019;BME280;66942;52.138;5.216;2023-02-28T06:28:57;103250.0;;;5.86;62.43
64019;BME280;66942;52.138;5.216;2023-02-28T06:30:33;103253.0;;;5.73;63.03
64019;BME280;66942;52.138;5.216;2023-02-28T06:32:09;103246.0;;;5.66;63.15
64019;BME280;66942;52.138;5.216;2023-02-28T06:35:22;103246.0;;;5.51;63.6
64019;BME280;66942;52.138;5.216;2023-02-28T06:36:59;103244.0;;;5.57;63.68
64019;BME280;66942;52.138;5.216;2023-02-28T06:38:36;103250.0;;;5.78;62.85
64019;BME280;66942;52.138;5.216;2023-02-28T06:41:51;103245.0;;;5.85;62.71
64019;BME280;66942;52.138;5.216;2023-02-28T06:43:28;103246.0;;;5.66;63.37
64019;BME280;66942;52.138;5.216;2023-02-28T06:45:06;103242.0;;;5.51;64.05
64019;BME280;66942;52.138;5.216;2023-02-28T06:46:44;103243.0;;;5.17;64.8
64019;BME280;66942;52.138;5.216;2023-02-28T06:49:56;103248.0;;;5.39;64.48
64019;BME280;66942;52.138;5.216;2023-02-28T06:51:33;103252.0;;;5.46;64.27
64019;BME280;66942;52.138;5.216;2023-02-28T06:53:09;103253.0;;;5.33;64.92
64019;BME280;66942;52.138;5.216;2023-02-28T06:56:21;103255.0;;;5.09;65.59
64019;BME280;66942;52.138;5.216;2023-02-28T06:57:57;103261.99999999999;;;5.7;63.79
64019;BME280;66942;52.138;5.216;2023-02-28T06:59:35;103258.99999999999;;;5.35;64.73
64019;BME280;66942;52.138;5.216;2023-02-28T07:02:49;103256.0;;;5.44;64.66
64019;BME280;66942;52.138;5.216;2023-02-28T07:04:25;103248.0;;;5.56;64.58
64019;BME280;66942;52.138;5.216;2023-02-28T07:06:01;103256.0;;;5.46;64.91
64019;BME280;66942;52.138;5.216;2023-02-28T07:07:39;103257.0;;;5.98;63.2
64019;BME280;66942;52.138;5.216;2023-02-28T07:10:52;103257.0;;;6.19;62.36
64019;BME280;66942;52.138;5.216;2023-02-28T07:12:29;103253.0;;;6.08;62.92
64019;BME280;66942;52.138;5.216;2023-02-28T07:14:05;103253.0;;;6.2;62.56
64019;BME280;66942;52.138;5.216;2023-02-28T07:17:17;103257.0;;;6.42;61.98
64019;BME280;66942;52.138;5.216;2023-02-28T07:18:53;103267.0;;;6.36;62.15
64019;BME280;66942;52.138;5.216;2023-02-28T07:20:29;103259.99999999999;;;6.13;62.93
64019;BME280;66942;52.138;5.216;2023-02-28T07:23:44;103256.0;;;6.3;62.59
64019;BME280;66942;52.138;5.216;2023-02-28T07:25:20;103254.0;;;5.66;64.45
64019;BME280;66942;52.138;5.216;2023-02-28T07:26:56;103251.0;;;5.54;64.97
64019;BME280;66942;52.138;5.216;2023-02-28T07:28:33;103258.0;;;5.69;64.69
64019;BME280;66942;52.138;5.216;2023-02-28T07:31:46;103257.0;;;6.05;63.49
64019;BME280;66942;52.138;5.216;2023-02-28T07:33:22;103265.00000000001;;;6.15;63.12
64019;BME280;66942;52.138;5.216;2023-02-28T07:34:59;103264.00000000001;;;6.13;63.26
64019;BME280;66942;52.138;5.216;2023-02-28T07:38:11;103263.00000000001;;;6.28;62.7
64019;BME280;66942;52.138;5.216;2023-02-28T07:39:47;103256.0;;;6.33;62.58
64019;BME280;66942;52.138;5.216;2023-02-28T07:41:23;103253.0;;;6.35;62.37
64019;BME280;66942;52.138;5.216;2023-02-28T07:44:36;103259.99999999999;;;6.31;62.41
64019;BME280;66942;52.138;5.216;2023-02-28T07:46:15;103263.00000000001;;;6.29;62.58
64019;BME280;66942;52.138;5.216;2023-02-28T07:47:52;103263.00000000001;;;5.99;63.51
64019;BME280;66942;52.138;5.216;2023-02-28T07:49:29;103270.0;;;5.97;64.05
64019;BME280;66942;52.138;5.216;2023-02-28T07:52:41;103269.0;;;6.15;63.15
64019;BME280;66942;52.138;5.216;2023-02-28T07:54:18;103267.0;;;6.25;62.92
64019;BME280;66942;52.138;5.216;2023-02-28T07:55:55;103259.99999999999;;;6.02;63.78
64019;BME280;66942;52.138;5.216;2023-02-28T07:59:07;103264.00000000001;;;5.73;64.7
64019;BME280;66942;52.138;5.216;2023-02-28T08:00:44;103267.0;;;5.68;65.47
64019;BME280;66942;52.138;5.216;2023-02-28T08:02:20;103273.0;;;5.97;64.81
64019;BME280;66942;52.138;5.216;2023-02-28T08:05:32;103270.0;;;5.8;65.22
64019;BME280;66942;52.138;5.216;2023-02-28T08:07:09;103266.00000000001;;;5.72;65.3
64019;BME280;66942;52.138;5.216;2023-02-28T08:08:45;103271.0;;;5.67;65.69
64019;BME280;66942;52.138;5.216;2023-02-28T08:10:20;103272.0;;;5.88;65.61
64019;BME280;66942;52.138;5.216;2023-02-28T08:13:33;103277.0;;;6.15;64.47
64019;BME280;66942;52.138;5.216;2023-02-28T08:15:10;103281.0;;;5.94;65.2
64019;BME280;66942;52.138;5.216;2023-02-28T08:16:46;103284.99999999999;;;6.03;64.94
64019;BME280;66942;52.138;5.216;2023-02-28T08:20:00;103281.0;;;6.17;64.94
64019;BME280;66942;52.138;5.216;2023-02-28T08:21:36;103281.0;;;6.18;64.77
64019;BME280;66942;52.138;5.216;2023-02-28T08:23:12;103290.00000000001;;;6.07;65.3
64019;BME280;66942;52.138;5.216;2023-02-28T08:26:25;103283.0;;;6.22;64.69
64019;BME280;66942;52.138;5.216;2023-02-28T08:28:02;103286.99999999999;;;6.58;63.78
64019;BME280;66942;52.138;5.216;2023-02-28T08:29:38;103292.0;;;6.58;64.72
64019;BME280;66942;52.138;5.216;2023-02-28T08:31:16;103295.0;;;6.74;63.41
64019;BME280;66942;52.138;5.216;2023-02-28T08:34:29;103291.00000000001;;;6.67;63.7
64019;BME280;66942;52.138;5.216;2023-02-28T08:36:06;103288.00000000001;;;6.72;63.89
64019;BME280;66942;52.138;5.216;2023-02-28T08:37:43;103276.0;;;6.69;64.14
64019;BME280;66942;52.138;5.216;2023-02-28T08:40:57;103283.0;;;6.9;63.38
64019;BME280;66942;52.138;5.216;2023-02-28T08:42:35;103283.99999999999;;;6.94;63.48
64019;BME280;66942;52.138;5.216;2023-02-28T08:44:12;103289.00000000001;;;6.88;64.22
64019;BME280;66942;52.138;5.216;2023-02-28T08:45:51;103289.00000000001;;;6.94;64.5
64019;BME280;66942;52.138;5.216;2023-02-28T08:49:03;103290.00000000001;;;6.81;63.38
64019;BME280;66942;52.138;5.216;2023-02-28T08:50:39;103294.0;;;7.09;63.27
64019;BME280;66942;52.138;5.216;2023-02-28T08:52:16;103290.00000000001;;;6.97;63.38
64019;BME280;66942;52.138;5.216;2023-02-28T08:55:30;103298.0;;;7.27;62.66
64019;BME280;66942;52.138;5.216;2023-02-28T08:57:06;103289.00000000001;;;7.15;62.32
64019;BME280;66942;52.138;5.216;2023-02-28T08:58:43;103291.00000000001;;;7.22;60.72
64019;BME280;66942;52.138;5.216;2023-02-28T09:01:57;103283.99999999999;;;7.25;61.11
64019;BME280;66942;52.138;5.216;2023-02-28T09:03:34;103278.0;;;7.32;61.24
64019;BME280;66942;52.138;5.216;2023-02-28T09:05:10;103277.0;;;7.31;61.01
64019;BME280;66942;52.138;5.216;2023-02-28T09:06:46;103284.99999999999;;;7.49;60.76
64019;BME280;66942;52.138;5.216;2023-02-28T09:09:59;103290.00000000001;;;7.39;61.31
64019;BME280;66942;52.138;5.216;2023-02-28T09:11:36;103289.00000000001;;;7.47;58.83
64019;BME280;66942;52.138;5.216;2023-02-28T09:13:13;103295.0;;;7.4;58.99
64019;BME280;66942;52.138;5.216;2023-02-28T09:16:25;103294.0;;;7.26;59.55
64019;BME280;66942;52.138;5.216;2023-02-28T09:18:01;103290.00000000001;;;7.47;58.41
64019;BME280;66942;52.138;5.216;2023-02-28T09:19:37;103294.0;;;7.47;57.66
64019;BME280;66942;52.138;5.216;2023-02-28T09:22:52;103284.99999999999;;;7.25;57.98
64019;BME280;66942;52.138;5.216;2023-02-28T09:24:28;103290.00000000001;;;7.29;57.16
64019;BME280;66942;52.138;5.216;2023-02-28T09:26:05;103279.0;;;7.51;57.73
64019;BME280;66942;52.138;5.216;2023-02-28T09:27:42;103291.00000000001;;;7.4;56.83
64019;BME280;66942;52.138;5.216;2023-02-28T09:30:54;103280.0;;;7.39;57.47
64019;BME280;66942;52.138;5.216;2023-02-28T09:32:31;103292.0;;;7.51;56.28
64019;BME280;66942;52.138;5.216;2023-02-28T09:34:07;103279.0;;;7.59;55.01
64019;BME280;66942;52.138;5.216;2023-02-28T09:37:19;103293.0;;;7.65;54.86
64019;BME280;66942;52.138;5.216;2023-02-28T09:38:56;103294.0;;;7.54;54.77
64019;BME280;66942;52.138;5.216;2023-02-28T09:40:35;103289.00000000001;;;7.46;54.24
64019;BME280;66942;52.138;5.216;2023-02-28T09:44:06;103289.00000000001;;;7.62;55.33
64019;BME280;66942;52.138;5.216;2023-02-28T09:45:52;103293.0;;;7.91;52.31
64019;BME280;66942;52.138;5.216;2023-02-28T09:47:32;103291.00000000001;;;8.14;52.13
64019;BME280;66942;52.138;5.216;2023-02-28T09:49:14;103292.0;;;7.96;50.03
64019;BME280;66942;52.138;5.216;2023-02-28T09:50:56;103293.0;;;8.14;50.95
64019;BME280;66942;52.138;5.216;2023-02-28T09:54:15;103289.00000000001;;;8.19;48.57
64019;BME280;66942;52.138;5.216;2023-02-28T09:55:55;103295.0;;;8.32;47.28
64019;BME280;66942;52.138;5.216;2023-02-28T09:57:37;103296.0;;;8.22;48.65
64019;BME280;66942;52.138;5.216;2023-02-28T09:59:26;103297.0;;;8.44;49.31
64019;BME280;66942;52.138;5.216;2023-02-28T10:01:22;103283.99999999999;;;8.57;46.46
64019;BME280;66942;52.138;5.216;2023-02-28T10:05:05;103292.0;;;8.77;48.39
64019;BME280;66942;52.138;5.216;2023-02-28T10:06:46;103292.0;;;8.9;44.42
64019;BME280;66942;52.138;5.216;2023-02-28T10:08:26;103284.99999999999;;;8.77;45.74
64019;BME280;66942;52.138;5.216;2023-02-28T10:10:17;103284.99999999999;;;8.6;44.44
64019;BME280;66942;52.138;5.216;2023-02-28T10:12:02;103281.0;;;8.4;43.31
64019;BME280;66942;52.138;5.216;2023-02-28T10:13:49;103276.0;;;8.49;42.4
64019;BME280;66942;52.138;5.216;2023-02-28T10:17:11;103279.0;;;8.61;42.06
64019;BME280;66942;52.138;5.216;2023-02-28T10:18:52;103283.0;;;8.56;40.06
64019;BME280;66942;52.138;5.216;2023-02-28T10:20:37;103282.0;;;8.65;39.47
64019;BME280;66942;52.138;5.216;2023-02-28T10:22:18;103273.0;;;8.76;38.67
64019;BME280;66942;52.138;5.216;2023-02-28T10:25:57;103276.0;;;8.9;39.24
64019;BME280;66942;52.138;5.216;2023-02-28T10:27:34;103278.0;;;9.17;40.36
64019;BME280;66942;52.138;5.216;2023-02-28T10:29:11;103273.0;;;8.81;37.68
64019;BME280;66942;52.138;5.216;2023-02-28T10:30:49;103269.0;;;9.07;38.14
64019;BME280;66942;52.138;5.216;2023-02-28T10:34:07;103267.0;;;9.02;37.47
64019;BME280;66942;52.138;5.216;2023-02-28T10:35:47;103264.00000000001;;;8.77;35.83
64019;BME280;66942;52.138;5.216;2023-02-28T10:37:24;103267.0;;;9.24;35.83
64019;BME280;66942;52.138;5.216;2023-02-28T10:39:34;103267.0;;;9.24;35.85
64019;BME280;66942;52.138;5.216;2023-02-28T10:41:12;103270.0;;;9.51;37.36
64019;BME280;66942;52.138;5.216;2023-02-28T10:44:34;103261.99999999999;;;9.81;36.71
64019;BME280;66942;52.138;5.216;2023-02-28T10:46:13;103258.0;;;10.03;37.19
64019;BME280;66942;52.138;5.216;2023-02-28T10:47:53;103257.0;;;10.39;37.01
64019;BME280;66942;52.138;5.216;2023-02-28T10:49:30;103255.0;;;10.46;34.79
64019;BME280;66942;52.138;5.216;2023-02-28T10:52:46;103254.0;;;10.4;33.32